Time;durP1;ratioP1;P1;durP2;ratioP2;P2;SDS_P1;SDS_P2;PMS_P1;PMS_P2;Temp;Humidity;BMP_temperature;BMP_pressure;BME280_temperature;BME280_humidity;BME280_pressure;Samples;Min_cycle;Max_cycle;Signal;HPM_P1;HPM_P2
2022/03/29 00:00:52;;;;;;;24.87;14.87;;;9.30;99.90;;;;;;5054495;28;20189;-41
2022/03/29 00:03:18;;;;;;;23.37;14.33;;;9.20;99.90;;;;;;5054172;28;20179;-42
2022/03/29 00:05:43;;;;;;;21.67;14.83;;;9.20;99.90;;;;;;5054045;28;20206;-42
2022/03/29 00:08:09;;;;;;;22.70;13.83;;;9.20;99.90;;;;;;5054140;28;20182;-39
2022/03/29 00:10:35;;;;;;;27.97;14.80;;;9.20;99.90;;;;;;5053921;28;20214;-39
2022/03/29 00:13:00;;;;;;;20.63;13.43;;;9.20;99.90;;;;;;5052684;28;20684;-40
2022/03/29 00:15:28;;;;;;;24.17;14.30;;;9.10;99.90;;;;;;5054161;28;20253;-39
2022/03/29 00:17:54;;;;;;;27.00;14.47;;;9.10;99.90;;;;;;5054213;28;20174;-43
2022/03/29 00:20:21;;;;;;;27.57;14.87;;;9.00;99.90;;;;;;5054112;28;20540;-38
2022/03/29 00:22:47;;;;;;;27.63;16.33;;;9.00;99.90;;;;;;5053767;28;20280;-41
2022/03/29 00:25:13;;;;;;;22.53;14.57;;;9.00;99.90;;;;;;5053670;28;20252;-39
2022/03/29 00:27:39;;;;;;;24.60;14.50;;;9.00;99.90;;;;;;5053989;28;20194;-39
2022/03/29 00:30:07;;;;;;;26.03;15.20;;;8.90;99.90;;;;;;5053639;28;20228;-40
2022/03/29 00:32:33;;;;;;;24.87;14.57;;;8.90;99.90;;;;;;5053576;28;20710;-41
2022/03/29 00:35:01;;;;;;;24.40;14.30;;;8.90;99.90;;;;;;5053545;28;20177;-41
2022/03/29 00:37:26;;;;;;;21.97;14.00;;;8.90;99.90;;;;;;5053829;28;20204;-39
2022/03/29 00:39:52;;;;;;;22.67;13.90;;;8.80;99.90;;;;;;5053795;28;20639;-40
2022/03/29 00:42:17;;;;;;;25.50;15.40;;;8.70;99.90;;;;;;5053502;28;20183;-41
2022/03/29 00:44:43;;;;;;;27.97;14.30;;;8.70;99.90;;;;;;5053621;28;20216;-42
2022/03/29 00:47:09;;;;;;;23.47;13.30;;;8.70;99.90;;;;;;5052932;28;20677;-38
2022/03/29 00:49:35;;;;;;;26.87;14.33;;;8.70;99.90;;;;;;5053349;28;20224;-41
2022/03/29 00:52:02;;;;;;;24.57;14.47;;;8.70;99.90;;;;;;5053244;28;20212;-40
2022/03/29 00:54:33;;;;;;;27.10;14.23;;;8.70;99.90;;;;;;5054098;28;20230;-39
2022/03/29 00:57:00;;;;;;;20.53;13.20;;;8.60;99.90;;;;;;5053559;28;20677;-42
2022/03/29 00:59:27;;;;;;;26.23;14.13;;;8.70;99.90;;;;;;5053576;28;20259;-41
2022/03/29 01:01:54;;;;;;;22.67;13.83;;;8.60;99.90;;;;;;5053254;28;20665;-42
2022/03/29 01:04:23;;;;;;;26.77;14.30;;;8.60;99.90;;;;;;5053177;28;20643;-41
2022/03/29 01:06:49;;;;;;;25.80;14.43;;;8.60;99.90;;;;;;5053080;28;20201;-40
2022/03/29 01:09:15;;;;;;;25.17;14.73;;;8.60;99.90;;;;;;5053416;28;20180;-41
2022/03/29 01:11:41;;;;;;;34.83;15.53;;;8.60;99.90;;;;;;5053576;28;20208;-41
2022/03/29 01:14:06;;;;;;;23.83;14.13;;;8.60;99.90;;;;;;5053421;28;20180;-40
2022/03/29 01:19:19;;;;;;;28.57;15.43;;;8.60;99.90;;;;;;5053614;28;20176;-39
2022/03/29 01:21:59;;;;;;;26.97;14.67;;;8.50;99.90;;;;;;5053027;28;20212;-40
2022/03/29 01:24:25;;;;;;;41.83;16.40;;;8.60;99.90;;;;;;5053327;28;20551;-40
2022/03/29 01:26:53;;;;;;;31.27;15.90;;;8.60;99.90;;;;;;5053180;28;20618;-42
2022/03/29 01:29:20;;;;;;;31.40;15.87;;;8.70;99.90;;;;;;5053007;28;20647;-41
2022/03/29 01:31:48;;;;;;;34.60;15.27;;;8.70;99.90;;;;;;5052888;28;20209;-42
2022/03/29 01:34:13;;;;;;;24.70;14.43;;;8.70;99.90;;;;;;5052971;28;20180;-41
2022/03/29 01:36:39;;;;;;;29.77;15.83;;;8.80;99.90;;;;;;5052825;28;20212;-39
2022/03/29 01:39:04;;;;;;;32.20;14.97;;;8.80;99.90;;;;;;5053145;28;20180;-41
2022/03/29 01:41:30;;;;;;;28.87;15.23;;;8.80;99.90;;;;;;5052857;28;20207;-39
2022/03/29 01:43:56;;;;;;;28.40;14.67;;;8.80;99.90;;;;;;5053805;28;20192;-42
2022/03/29 01:46:22;;;;;;;33.03;15.00;;;8.80;99.90;;;;;;5052645;28;20592;-40
2022/03/29 01:48:49;;;;;;;33.73;14.67;;;8.80;99.90;;;;;;5053349;28;20709;-41
2022/03/29 01:51:15;;;;;;;25.70;13.43;;;8.80;99.90;;;;;;5052922;28;20296;-41
2022/03/29 01:53:41;;;;;;;29.23;14.07;;;8.80;99.90;;;;;;5052772;28;20256;-39
2022/03/29 01:56:07;;;;;;;26.07;13.03;;;8.90;99.90;;;;;;5052692;28;20283;-41
2022/03/29 01:58:33;;;;;;;28.50;14.03;;;8.80;99.90;;;;;;5052636;28;20272;-41
2022/03/29 02:00:59;;;;;;;28.40;14.67;;;8.80;99.90;;;;;;5056420;28;20188;-41
2022/03/29 02:03:25;;;;;;;26.17;14.47;;;8.80;99.90;;;;;;5056470;28;20604;-41
2022/03/29 02:05:50;;;;;;;26.93;14.17;;;8.90;99.90;;;;;;5056426;28;20236;-41
2022/03/29 02:08:18;;;;;;;31.07;14.53;;;8.90;99.90;;;;;;5056553;28;20196;-41
2022/03/29 02:10:44;;;;;;;31.10;14.57;;;8.90;99.90;;;;;;5056286;28;20211;-41
2022/03/29 02:13:10;;;;;;;28.70;14.77;;;8.90;99.90;;;;;;5056653;28;20507;-39
2022/03/29 02:15:39;;;;;;;24.90;14.87;;;8.90;99.90;;;;;;5056403;28;20201;-40
2022/03/29 02:18:06;;;;;;;32.30;15.17;;;8.80;99.90;;;;;;5056424;28;20184;-40
2022/03/29 02:20:32;;;;;;;30.93;15.97;;;8.80;99.90;;;;;;5056421;28;20673;-41
2022/03/29 02:23:02;;;;;;;29.53;15.23;;;8.90;99.90;;;;;;5056324;28;20219;-40
2022/03/29 02:25:28;;;;;;;28.67;14.93;;;8.90;99.90;;;;;;5056207;28;20283;-40
2022/03/29 02:27:53;;;;;;;28.37;15.77;;;8.80;99.90;;;;;;5056023;28;20229;-41
2022/03/29 02:30:19;;;;;;;30.13;15.97;;;8.80;99.90;;;;;;5055917;28;20225;-41
2022/03/29 02:32:45;;;;;;;27.70;15.30;;;8.80;99.90;;;;;;5056138;28;20177;-41
2022/03/29 02:35:11;;;;;;;30.20;15.13;;;8.90;99.90;;;;;;5055817;28;20204;-40
2022/03/29 02:37:37;;;;;;;33.17;15.57;;;8.80;99.90;;;;;;5055837;28;20169;-41
2022/03/29 02:40:05;;;;;;;35.63;15.60;;;8.90;99.90;;;;;;5055786;28;20263;-41
2022/03/29 02:42:31;;;;;;;29.63;16.77;;;8.80;99.90;;;;;;5055985;28;20238;-42
2022/03/29 02:44:57;;;;;;;31.60;15.73;;;8.80;99.90;;;;;;5055477;28;20643;-41
2022/03/29 02:47:22;;;;;;;28.87;16.00;;;8.80;99.90;;;;;;5055959;28;20168;-40
2022/03/29 02:49:48;;;;;;;27.40;14.83;;;8.80;99.90;;;;;;5055589;28;20236;-41
2022/03/29 02:52:13;;;;;;;29.27;15.70;;;8.80;99.90;;;;;;5055486;28;20219;-40
2022/03/29 02:54:39;;;;;;;31.67;15.97;;;8.80;99.90;;;;;;5055742;28;20267;-38
2022/03/29 02:57:05;;;;;;;29.70;15.50;;;8.80;99.90;;;;;;5055684;28;20204;-39
2022/03/29 02:59:30;;;;;;;32.10;14.30;;;8.80;99.90;;;;;;5055716;28;20176;-41
2022/03/29 03:01:57;;;;;;;37.33;15.50;;;8.80;99.90;;;;;;5055330;28;20181;-40
2022/03/29 03:04:22;;;;;;;31.03;16.00;;;8.80;99.90;;;;;;5055573;28;20207;-39
2022/03/29 03:06:48;;;;;;;33.30;16.37;;;8.70;99.90;;;;;;5055859;28;20211;-39
2022/03/29 03:09:13;;;;;;;31.07;15.57;;;8.70;99.90;;;;;;5055482;28;20177;-39
2022/03/29 03:11:39;;;;;;;30.47;15.87;;;8.70;99.90;;;;;;5054757;28;20249;-40
2022/03/29 03:14:05;;;;;;;30.13;16.23;;;8.70;99.90;;;;;;5055373;28;20180;-40
2022/03/29 03:16:31;;;;;;;30.73;16.83;;;8.70;99.90;;;;;;5054964;28;20562;-42
2022/03/29 03:18:56;;;;;;;28.80;15.87;;;8.70;99.90;;;;;;5055586;28;20188;-40
2022/03/29 03:21:22;;;;;;;29.23;16.23;;;8.70;99.90;;;;;;5055547;28;20252;-40
2022/03/29 03:23:48;;;;;;;28.37;14.97;;;8.70;99.90;;;;;;5054925;28;20187;-41
2022/03/29 03:26:14;;;;;;;33.17;14.77;;;8.70;99.90;;;;;;5055128;28;20196;-41
2022/03/29 03:28:39;;;;;;;35.00;15.37;;;8.70;99.90;;;;;;5055135;28;20211;-39
2022/03/29 03:31:05;;;;;;;30.97;15.20;;;8.60;99.90;;;;;;5054734;28;20215;-41
2022/03/29 03:33:30;;;;;;;27.30;15.57;;;8.60;99.90;;;;;;5055095;28;20181;-41
2022/03/29 03:35:56;;;;;;;23.67;14.47;;;8.60;99.90;;;;;;5054665;28;20283;-41
2022/03/29 03:38:22;;;;;;;31.30;15.70;;;8.60;99.90;;;;;;5054713;28;20172;-41
2022/03/29 03:40:48;;;;;;;31.80;15.40;;;8.50;99.90;;;;;;5054680;28;20519;-40
2022/03/29 03:43:13;;;;;;;29.00;15.80;;;8.60;99.90;;;;;;5054898;28;20234;-41
2022/03/29 03:45:39;;;;;;;28.67;15.07;;;8.60;99.90;;;;;;5054730;28;20579;-41
2022/03/29 03:48:05;;;;;;;29.20;15.47;;;8.60;99.90;;;;;;5054815;28;20180;-40
2022/03/29 03:50:30;;;;;;;28.73;15.90;;;8.60;99.90;;;;;;5055965;28;20212;-45
2022/03/29 03:52:57;;;;;;;28.33;16.30;;;8.50;99.90;;;;;;5058822;28;20322;-45
2022/03/29 03:55:22;;;;;;;28.57;15.23;;;8.50;99.90;;;;;;5059226;28;20196;-46
2022/03/29 03:57:49;;;;;;;28.37;14.70;;;8.50;99.90;;;;;;5058978;28;20653;-46
2022/03/29 04:00:16;;;;;;;34.57;17.07;;;8.50;99.90;;;;;;5058219;28;20183;-45
2022/03/29 04:02:42;;;;;;;31.10;16.10;;;8.50;99.90;;;;;;5057884;28;20184;-45
2022/03/29 04:05:10;;;;;;;27.10;14.67;;;8.50;99.90;;;;;;5058956;28;20188;-46
2022/03/29 04:07:36;;;;;;;25.50;16.00;;;8.50;99.90;;;;;;5059063;28;20650;-43
2022/03/29 04:10:02;;;;;;;26.10;15.47;;;8.40;99.90;;;;;;5058470;28;20173;-46
2022/03/29 04:12:27;;;;;;;27.93;16.07;;;8.40;99.90;;;;;;5059188;28;20585;-45
2022/03/29 04:14:54;;;;;;;28.10;15.13;;;8.40;99.90;;;;;;5058366;28;20180;-43
2022/03/29 04:17:19;;;;;;;24.87;15.90;;;8.30;99.90;;;;;;5054710;28;20184;-41
2022/03/29 04:19:45;;;;;;;26.07;15.33;;;8.30;99.90;;;;;;5054392;28;20173;-42
2022/03/29 04:22:11;;;;;;;26.50;16.03;;;8.30;99.90;;;;;;5053172;28;20498;-41
2022/03/29 04:24:36;;;;;;;25.17;15.53;;;8.20;99.90;;;;;;5054325;28;20176;-42
2022/03/29 04:27:02;;;;;;;26.53;15.63;;;8.20;99.90;;;;;;5054191;28;20207;-41
2022/03/29 04:29:28;;;;;;;29.63;16.43;;;8.20;99.90;;;;;;5053952;28;20237;-41
2022/03/29 04:31:54;;;;;;;27.53;15.87;;;8.20;99.90;;;;;;5054131;28;20207;-42
2022/03/29 04:34:20;;;;;;;22.93;14.90;;;8.10;99.90;;;;;;5053670;28;20270;-41
2022/03/29 04:36:45;;;;;;;30.10;15.77;;;8.10;99.90;;;;;;5053566;28;20678;-41
2022/03/29 04:39:12;;;;;;;29.57;16.63;;;8.10;99.90;;;;;;5053566;28;20180;-41
2022/03/29 04:41:39;;;;;;;32.63;16.43;;;8.10;99.90;;;;;;5053806;28;20537;-41
2022/03/29 04:44:05;;;;;;;31.50;16.80;;;8.10;99.90;;;;;;5053450;28;20184;-41
2022/03/29 04:46:31;;;;;;;29.33;15.77;;;8.10;99.90;;;;;;5053260;28;20244;-40
2022/03/29 04:48:56;;;;;;;25.30;15.90;;;8.00;99.90;;;;;;5053377;28;20241;-41
2022/03/29 04:51:22;;;;;;;27.40;16.67;;;8.00;99.90;;;;;;5053305;28;20289;-40
2022/03/29 04:53:48;;;;;;;35.97;17.07;;;8.00;99.90;;;;;;5053317;28;20576;-40
2022/03/29 04:56:14;;;;;;;31.67;16.80;;;8.00;99.90;;;;;;5053239;28;20188;-41
2022/03/29 04:58:40;;;;;;;27.43;16.30;;;8.00;99.90;;;;;;5053258;28;20183;-41
2022/03/29 05:01:05;;;;;;;32.97;16.63;;;7.90;99.90;;;;;;5053186;28;20610;-40
2022/03/29 05:03:32;;;;;;;30.90;16.43;;;7.90;99.90;;;;;;5053202;28;20182;-39
2022/03/29 05:05:57;;;;;;;32.07;16.93;;;7.80;99.90;;;;;;5051844;28;20203;-42
2022/03/29 05:08:23;;;;;;;36.90;17.17;;;7.80;99.90;;;;;;5053139;28;20233;-40
2022/03/29 05:10:48;;;;;;;29.20;16.30;;;7.80;99.90;;;;;;5053554;28;20611;-41
2022/03/29 05:13:17;;;;;;;34.70;17.90;;;7.80;99.90;;;;;;5053364;28;20203;-41
2022/03/29 05:15:43;;;;;;;35.87;18.03;;;7.80;99.90;;;;;;5053270;28;20214;-40
2022/03/29 05:18:09;;;;;;;32.23;16.93;;;7.70;99.90;;;;;;5053102;28;20176;-41
2022/03/29 05:20:34;;;;;;;34.33;18.43;;;7.70;99.90;;;;;;5053321;28;20183;-41
2022/03/29 05:23:06;;;;;;;42.77;19.53;;;7.70;99.90;;;;;;5053057;28;20241;-41
2022/03/29 05:25:32;;;;;;;31.03;18.13;;;7.70;99.90;;;;;;5053184;28;20200;-41
2022/03/29 05:27:59;;;;;;;33.37;20.27;;;7.70;99.90;;;;;;5052977;28;20665;-42
2022/03/29 05:30:25;;;;;;;30.37;17.83;;;7.70;99.90;;;;;;5053144;28;20222;-41
2022/03/29 05:32:57;;;;;;;29.57;17.23;;;7.60;99.90;;;;;;5053111;28;20263;-41
2022/03/29 05:35:25;;;;;;;26.27;16.50;;;7.60;99.90;;;;;;5057422;28;20279;-40
2022/03/29 05:37:51;;;;;;;32.43;17.13;;;7.60;99.90;;;;;;5057200;28;20184;-39
2022/03/29 05:40:17;;;;;;;28.93;18.03;;;7.60;99.90;;;;;;5056872;28;20188;-41
2022/03/29 05:42:44;;;;;;;33.77;18.20;;;7.60;99.90;;;;;;5057112;28;20668;-41
2022/03/29 05:45:11;;;;;;;26.40;17.43;;;7.60;99.90;;;;;;5056649;28;20234;-40
2022/03/29 05:50:23;;;;;;;28.90;17.03;;;7.60;99.90;;;;;;5056699;28;20270;-42
2022/03/29 05:52:48;;;;;;;33.27;17.93;;;7.60;99.90;;;;;;5056680;28;20183;-42
2022/03/29 05:55:15;;;;;;;30.57;17.60;;;7.60;99.90;;;;;;5056548;28;20200;-41
2022/03/29 05:57:40;;;;;;;28.87;17.57;;;7.60;99.90;;;;;;5056648;28;20168;-41
2022/03/29 06:00:10;;;;;;;28.90;17.73;;;7.60;99.90;;;;;;5056772;28;20625;-42
2022/03/29 06:02:37;;;;;;;27.63;17.93;;;7.70;99.90;;;;;;5056788;28;20180;-41
2022/03/29 06:05:03;;;;;;;29.57;16.67;;;7.60;99.90;;;;;;5056382;28;20592;-40
2022/03/29 06:07:29;;;;;;;30.93;18.73;;;7.60;99.90;;;;;;5056375;28;20213;-39
2022/03/29 06:09:54;;;;;;;33.57;18.70;;;7.70;99.90;;;;;;5056390;28;20242;-42
2022/03/29 06:12:23;;;;;;;31.33;17.97;;;7.70;99.90;;;;;;5056217;28;20238;-41
2022/03/29 06:14:49;;;;;;;32.87;18.77;;;7.70;99.90;;;;;;5056761;28;20628;-39
2022/03/29 06:17:15;;;;;;;32.53;18.83;;;7.70;99.90;;;;;;5056036;28;20729;-41
2022/03/29 06:19:42;;;;;;;31.00;18.20;;;7.70;99.90;;;;;;5056184;28;20188;-40
2022/03/29 06:22:07;;;;;;;33.73;18.23;;;7.70;99.90;;;;;;5056081;28;20263;-39
2022/03/29 06:24:33;;;;;;;31.63;17.63;;;7.70;99.90;;;;;;5056394;28;20222;-41
2022/03/29 06:26:59;;;;;;;28.93;18.20;;;7.80;99.90;;;;;;5055966;28;20200;-39
2022/03/29 06:29:25;;;;;;;32.00;18.60;;;7.80;99.90;;;;;;5056241;28;20215;-40
2022/03/29 06:31:51;;;;;;;33.47;18.53;;;7.80;99.90;;;;;;5055942;28;20203;-41
2022/03/29 06:34:17;;;;;;;32.77;18.10;;;7.90;99.90;;;;;;5056153;28;20587;-41
2022/03/29 06:36:43;;;;;;;30.03;18.63;;;7.90;99.90;;;;;;5055834;28;20304;-39
2022/03/29 06:39:11;;;;;;;41.93;20.67;;;7.90;99.90;;;;;;5056021;28;20180;-40
2022/03/29 06:41:37;;;;;;;35.73;19.40;;;8.00;99.90;;;;;;5055762;28;20711;-41
2022/03/29 06:44:03;;;;;;;32.90;20.20;;;8.00;99.90;;;;;;5055941;28;20275;-40
2022/03/29 06:46:29;;;;;;;33.50;19.53;;;8.00;99.90;;;;;;5054811;28;20303;-42
2022/03/29 06:48:56;;;;;;;34.27;18.93;;;8.00;99.90;;;;;;5055544;28;20188;-40
2022/03/29 06:51:23;;;;;;;37.33;20.43;;;8.10;99.90;;;;;;5056291;28;20207;-41
2022/03/29 06:53:49;;;;;;;33.80;19.70;;;8.10;99.90;;;;;;5054244;28;20183;-40
2022/03/29 06:56:16;;;;;;;32.23;18.77;;;8.10;99.90;;;;;;5055586;28;20203;-41
2022/03/29 06:58:42;;;;;;;33.33;19.43;;;8.10;99.90;;;;;;5055557;28;20176;-40
2022/03/29 07:01:08;;;;;;;33.90;20.70;;;8.20;99.90;;;;;;5055716;28;20192;-41
2022/03/29 07:03:35;;;;;;;35.53;20.00;;;8.20;99.90;;;;;;5055347;28;20215;-40
2022/03/29 07:06:03;;;;;;;40.27;20.57;;;8.30;99.90;;;;;;5055490;28;20264;-41
2022/03/29 07:08:30;;;;;;;46.27;20.10;;;8.30;99.90;;;;;;5055271;28;20207;-40
2022/03/29 07:13:41;;;;;;;35.47;20.47;;;8.40;99.90;;;;;;5055231;28;20164;-40
2022/03/29 07:16:09;;;;;;;35.20;20.30;;;8.50;99.90;;;;;;5055078;28;20589;-38
2022/03/29 07:18:35;;;;;;;34.80;21.40;;;8.60;99.90;;;;;;5055383;28;20256;-42
2022/03/29 07:21:01;;;;;;;40.43;21.93;;;8.60;99.90;;;;;;5055053;28;20176;-40
2022/03/29 07:23:27;;;;;;;39.97;21.40;;;8.70;99.90;;;;;;5055238;28;20176;-43
2022/03/29 07:25:53;;;;;;;41.93;21.83;;;8.80;99.90;;;;;;5054877;28;20196;-41
2022/03/29 07:28:20;;;;;;;38.30;21.17;;;8.80;99.90;;;;;;5054919;28;20579;-40
2022/03/29 07:30:46;;;;;;;37.63;20.80;;;8.90;99.90;;;;;;5054750;28;20202;-40
2022/03/29 07:33:11;;;;;;;39.80;22.10;;;8.90;99.90;;;;;;5054752;28;20168;-41
2022/03/29 07:35:38;;;;;;;35.80;21.33;;;9.00;99.90;;;;;;5054908;28;20196;-41
2022/03/29 07:38:07;;;;;;;35.07;21.93;;;9.10;99.90;;;;;;5054622;28;20646;-41
2022/03/29 07:40:34;;;;;;;40.83;21.43;;;9.10;99.90;;;;;;5054912;28;20207;-41
2022/03/29 07:43:00;;;;;;;32.77;21.60;;;9.10;99.90;;;;;;5054858;28;20187;-41
2022/03/29 07:45:27;;;;;;;39.63;21.70;;;9.20;99.90;;;;;;5054538;28;20303;-40
2022/03/29 07:47:56;;;;;;;34.23;21.43;;;9.20;99.90;;;;;;5054876;28;20160;-41
2022/03/29 07:50:22;;;;;;;37.27;20.93;;;9.30;99.90;;;;;;5054459;28;20202;-41
2022/03/29 07:52:50;;;;;;;40.67;22.23;;;9.40;99.90;;;;;;5054708;28;20177;-41
2022/03/29 07:55:16;;;;;;;40.63;22.27;;;9.50;99.90;;;;;;5054605;28;20212;-41
2022/03/29 07:57:42;;;;;;;42.13;21.97;;;9.60;99.90;;;;;;5053586;28;20176;-40
2022/03/29 08:02:55;;;;;;;37.30;21.63;;;9.70;99.90;;;;;;5054626;28;20249;-38
2022/03/29 08:05:21;;;;;;;42.63;23.13;;;9.80;99.90;;;;;;5054154;28;20204;-41
2022/03/29 08:07:47;;;;;;;34.57;21.90;;;9.80;99.90;;;;;;5054120;28;20172;-42
2022/03/29 08:10:13;;;;;;;34.83;20.97;;;9.90;99.90;;;;;;5053984;28;20299;-41
2022/03/29 08:12:40;;;;;;;37.30;22.60;;;10.00;99.90;;;;;;5054052;28;20271;-40
2022/03/29 08:15:08;;;;;;;37.30;22.90;;;10.00;99.90;;;;;;5054227;28;20272;-41
2022/03/29 08:17:34;;;;;;;46.40;23.10;;;10.20;99.90;;;;;;5053991;28;20230;-42
2022/03/29 08:20:00;;;;;;;43.23;22.97;;;10.20;99.90;;;;;;5054228;28;20180;-40
2022/03/29 08:22:26;;;;;;;41.60;23.73;;;10.40;99.90;;;;;;5053992;28;20184;-40
2022/03/29 08:24:52;;;;;;;36.70;22.23;;;10.50;99.90;;;;;;5052641;28;20184;-42
2022/03/29 08:27:18;;;;;;;40.23;23.07;;;10.70;99.90;;;;;;5053680;28;20182;-41
2022/03/29 08:29:44;;;;;;;39.53;22.17;;;10.80;99.90;;;;;;5053774;28;20208;-39
2022/03/29 08:32:10;;;;;;;37.63;22.57;;;10.90;99.90;;;;;;5053854;28;20204;-43
2022/03/29 08:34:35;;;;;;;34.40;21.87;;;11.00;99.90;;;;;;5053700;28;20181;-40
2022/03/29 08:37:01;;;;;;;39.60;23.13;;;11.00;99.90;;;;;;5053538;28;20197;-40
2022/03/29 08:39:27;;;;;;;37.97;21.37;;;11.00;99.90;;;;;;5053920;28;20182;-40
2022/03/29 08:42:02;;;;;;;37.33;21.27;;;11.10;99.90;;;;;;5053797;28;20192;-40
2022/03/29 08:44:29;;;;;;;35.43;21.00;;;11.10;99.90;;;;;;5053787;28;20166;-41
2022/03/29 08:46:55;;;;;;;38.00;21.80;;;11.20;99.90;;;;;;5053276;28;20217;-41
2022/03/29 08:49:22;;;;;;;34.37;21.00;;;11.30;99.90;;;;;;5053383;28;20179;-42
2022/03/29 08:51:48;;;;;;;34.00;21.13;;;11.40;99.90;;;;;;5053389;28;20256;-40
2022/03/29 08:54:15;;;;;;;32.83;21.57;;;11.60;99.90;;;;;;5053602;28;20168;-41
2022/03/29 08:56:41;;;;;;;34.67;20.60;;;11.60;99.90;;;;;;5053518;28;20282;-41
2022/03/29 08:59:06;;;;;;;39.40;22.00;;;11.70;99.90;;;;;;5053271;28;20258;-40
2022/03/29 09:01:32;;;;;;;29.67;20.57;;;11.80;99.90;;;;;;5053243;28;20184;-39
2022/03/29 09:04:14;;;;;;;37.83;22.20;;;11.80;99.90;;;;;;5053284;28;20183;-41
2022/03/29 09:07:01;;;;;;;33.10;22.03;;;11.90;99.90;;;;;;5053378;28;20207;-41
2022/03/29 09:09:38;;;;;;;33.00;21.33;;;11.90;99.90;;;;;;5052962;28;20681;-41
2022/03/29 09:12:15;;;;;;;38.93;22.37;;;12.00;99.90;;;;;;5053373;28;20211;-40
2022/03/29 09:14:59;;;;;;;35.17;21.33;;;12.10;99.90;;;;;;5053400;28;20176;-41
2022/03/29 09:17:32;;;;;;;31.97;20.93;;;12.10;99.90;;;;;;5053136;28;20702;-40
2022/03/29 09:19:59;;;;;;;43.33;20.77;;;12.10;99.90;;;;;;5053173;28;20163;-41
2022/03/29 09:22:42;;;;;;;36.17;21.73;;;12.10;99.90;;;;;;5053166;28;20670;-40
2022/03/29 09:25:20;;;;;;;40.93;22.60;;;12.10;99.90;;;;;;5053404;28;20567;-41
2022/03/29 09:27:55;;;;;;;30.00;19.83;;;12.10;99.90;;;;;;5053392;28;20180;-41
2022/03/29 09:30:22;;;;;;;38.63;21.67;;;12.30;99.90;;;;;;5052079;28;20614;-40
2022/03/29 09:33:00;;;;;;;35.00;19.73;;;12.40;99.90;;;;;;5052978;28;20634;-39
2022/03/29 09:35:27;;;;;;;37.00;21.37;;;12.70;99.90;;;;;;5053216;28;20196;-39
2022/03/29 09:37:54;;;;;;;31.50;20.63;;;12.80;99.90;;;;;;5053242;28;20656;-39
2022/03/29 09:40:20;;;;;;;32.87;20.00;;;12.90;99.90;;;;;;5053106;28;20199;-39
2022/03/29 09:43:08;;;;;;;33.60;21.83;;;12.90;99.90;;;;;;5053182;28;20181;-39
2022/03/29 09:45:45;;;;;;;32.83;21.63;;;12.90;99.90;;;;;;5052828;28;20227;-40
2022/03/29 09:48:26;;;;;;;37.50;21.87;;;12.90;99.90;;;;;;5052912;28;20153;-41
2022/03/29 09:50:55;;;;;;;34.53;21.27;;;13.00;99.90;;;;;;5053007;28;20185;-41
2022/03/29 09:53:54;;;;;;;32.13;20.67;;;13.00;99.90;;;;;;5053011;28;20258;-41
2022/03/29 09:56:26;;;;;;;35.67;21.20;;;13.10;99.90;;;;;;5052376;28;20618;-40
2022/03/29 09:59:10;;;;;;;35.43;21.90;;;13.20;99.90;;;;;;5052616;28;20187;-41
2022/03/29 10:01:54;;;;;;;30.93;20.33;;;13.20;99.90;;;;;;5052875;28;20249;-40
2022/03/29 10:04:21;;;;;;;40.93;23.00;;;13.30;99.90;;;;;;5052964;28;20527;-38
2022/03/29 10:06:48;;;;;;;38.37;21.87;;;13.40;99.90;;;;;;5052735;28;20279;-40
2022/03/29 10:09:27;;;;;;;35.77;22.17;;;13.60;99.90;;;;;;5053639;28;20192;-40
2022/03/29 10:12:06;;;;;;;31.03;21.80;;;13.60;99.90;;;;;;5052826;28;20184;-39
2022/03/29 10:14:39;;;;;;;29.23;19.53;;;13.70;99.90;;;;;;5051363;28;20576;-40
2022/03/29 10:17:07;;;;;;;31.53;19.87;;;13.70;99.90;;;;;;5052427;28;20204;-41
2022/03/29 10:19:35;;;;;;;34.60;20.83;;;13.90;99.90;;;;;;5052527;28;20178;-38
2022/03/29 10:22:01;;;;;;;35.67;21.33;;;14.10;99.90;;;;;;5054611;28;20176;-40
2022/03/29 10:24:29;;;;;;;35.70;20.73;;;14.00;99.90;;;;;;5056326;28;20211;-38
2022/03/29 10:26:56;;;;;;;30.37;20.20;;;14.00;99.90;;;;;;5056207;28;20207;-40
2022/03/29 10:29:23;;;;;;;31.83;20.20;;;13.80;99.90;;;;;;5056246;28;20185;-40
2022/03/29 10:32:05;;;;;;;30.77;20.87;;;14.00;99.90;;;;;;5055946;28;20197;-40
2022/03/29 10:34:31;;;;;;;30.53;20.57;;;14.20;99.90;;;;;;5056205;28;20164;-40
2022/03/29 10:37:07;;;;;;;33.63;21.13;;;14.40;99.90;;;;;;5055984;28;20192;-41
2022/03/29 10:40:10;;;;;;;28.47;19.80;;;14.40;99.90;;;;;;5056073;28;20641;-40
2022/03/29 10:42:43;;;;;;;28.70;20.57;;;14.30;99.90;;;;;;5043889;28;20665;-40
2022/03/29 10:45:19;;;;;;;31.20;21.97;;;14.40;99.90;;;;;;5043783;28;20196;-42
2022/03/29 10:48:01;;;;;;;32.13;20.53;;;14.40;99.90;;;;;;5035788;28;20626;-41
2022/03/29 10:50:56;;;;;;;33.40;20.90;;;14.50;99.90;;;;;;5036010;28;20157;-40
2022/03/29 10:53:23;;;;;;;29.80;19.47;;;14.60;99.90;;;;;;5035929;28;20219;-41
2022/03/29 10:56:19;;;;;;;29.40;20.33;;;14.60;99.90;;;;;;5035566;28;20228;-40
2022/03/29 10:59:03;;;;;;;28.23;19.47;;;14.60;99.90;;;;;;5035831;28;20248;-42
2022/03/29 11:01:37;;;;;;;29.13;18.73;;;14.60;99.90;;;;;;5035507;28;20177;-41
2022/03/29 11:04:07;;;;;;;25.87;18.20;;;14.70;99.90;;;;;;5035744;28;20716;-41
2022/03/29 11:06:33;;;;;;;26.43;18.53;;;14.70;99.90;;;;;;5035684;28;20215;-41
2022/03/29 11:09:15;;;;;;;26.53;19.37;;;14.80;99.90;;;;;;5035913;28;20173;-42
2022/03/29 11:11:47;;;;;;;26.47;18.07;;;14.80;99.90;;;;;;5035309;28;20200;-41
2022/03/29 11:14:35;;;;;;;32.00;19.77;;;14.80;99.90;;;;;;5050639;28;20650;-41
2022/03/29 11:17:09;;;;;;;28.47;18.80;;;14.90;99.90;;;;;;5035319;28;20188;-42
2022/03/29 11:19:48;;;;;;;30.20;18.17;;;14.90;99.90;;;;;;5035472;28;20252;-41
2022/03/29 11:22:29;;;;;;;25.30;18.30;;;15.00;99.90;;;;;;5035437;28;20169;-41
2022/03/29 11:25:05;;;;;;;24.70;18.33;;;14.90;99.90;;;;;;5035031;28;20212;-41
2022/03/29 11:27:33;;;;;;;30.67;20.67;;;14.90;99.90;;;;;;5035105;28;20252;-42
2022/03/29 11:30:01;;;;;;;33.03;19.77;;;14.80;99.90;;;;;;5035274;28;20181;-42
2022/03/29 11:32:27;;;;;;;33.00;19.80;;;14.70;99.90;;;;;;5035030;28;20659;-46
2022/03/29 11:34:57;;;;;;;28.17;19.40;;;14.70;99.90;;;;;;5035282;28;20208;-47
2022/03/29 11:37:44;;;;;;;26.47;19.77;;;14.70;99.90;;;;;;5035233;28;20172;-47
2022/03/29 11:40:18;;;;;;;29.63;19.67;;;14.70;99.90;;;;;;5035151;28;20165;-45
2022/03/29 11:42:54;;;;;;;33.03;23.07;;;14.70;99.90;;;;;;5050267;28;20279;-46
2022/03/29 11:45:22;;;;;;;80.00;44.10;;;14.80;99.90;;;;;;5034935;28;20204;-47
2022/03/29 11:47:52;;;;;;;87.57;47.23;;;14.60;99.90;;;;;;5034990;28;20227;-46
2022/03/29 11:50:33;;;;;;;95.10;51.83;;;14.10;99.90;;;;;;5034846;28;20181;-46
2022/03/29 11:52:59;;;;;;;88.57;49.63;;;13.80;99.90;;;;;;5034640;28;20258;-47
2022/03/29 11:55:25;;;;;;;98.03;58.50;;;13.60;99.90;;;;;;5034747;28;20189;-45
2022/03/29 11:57:52;;;;;;;102.40;55.70;;;13.30;99.90;;;;;;5034774;28;20268;-46
2022/03/29 12:00:28;;;;;;;105.67;56.73;;;13.10;99.90;;;;;;5035276;28;20181;-46
2022/03/29 12:02:55;;;;;;;105.70;55.63;;;13.10;99.90;;;;;;5034930;28;20295;-47
2022/03/29 12:05:26;;;;;;;98.90;55.03;;;13.00;99.90;;;;;;5034312;28;20200;-46
2022/03/29 12:08:03;;;;;;;102.93;54.77;;;12.90;99.90;;;;;;5034447;28;20168;-46
2022/03/29 12:10:34;;;;;;;99.77;51.50;;;13.00;99.90;;;;;;5034586;28;20165;-46
2022/03/29 12:13:00;;;;;;;86.43;49.90;;;12.90;99.90;;;;;;5034807;28;20162;-43
2022/03/29 12:15:25;;;;;;;85.40;46.83;;;13.00;99.90;;;;;;5033944;28;20251;-42
2022/03/29 12:18:40;;;;;;;87.47;47.83;;;13.10;99.90;;;;;;5033999;28;20213;-41
2022/03/29 12:20:43;;;;;;;96.93;50.87;;;13.10;99.90;;;;;;5033872;28;20530;-43
2022/03/29 12:23:27;;;;;;;88.90;52.83;;;13.20;99.90;;;;;;5033953;28;20181;-40
2022/03/29 12:25:55;;;;;;;89.17;49.47;;;13.10;99.90;;;;;;5034246;28;20613;-42
2022/03/29 12:28:22;;;;;;;85.53;48.07;;;13.10;99.90;;;;;;5033848;28;20169;-42
2022/03/29 12:30:48;;;;;;;83.93;46.23;;;13.20;99.90;;;;;;5033960;28;20284;-41
2022/03/29 12:33:15;;;;;;;85.57;47.90;;;13.30;99.90;;;;;;5033790;28;20188;-42
2022/03/29 12:35:41;;;;;;;79.80;43.30;;;13.40;99.90;;;;;;5033676;28;20189;-42
2022/03/29 12:38:11;;;;;;;72.97;45.43;;;13.40;99.90;;;;;;5033685;28;20514;-41
2022/03/29 12:40:37;;;;;;;75.37;45.70;;;13.40;99.90;;;;;;5033937;28;20173;-41
2022/03/29 12:43:08;;;;;;;74.20;41.97;;;13.40;99.90;;;;;;5033302;28;20185;-41
2022/03/29 12:45:35;;;;;;;69.23;41.97;;;13.30;99.90;;;;;;5033340;28;20221;-40
2022/03/29 12:48:03;;;;;;;73.33;43.43;;;13.40;99.90;;;;;;5033515;28;20175;-43
2022/03/29 12:50:29;;;;;;;75.70;42.33;;;13.40;99.90;;;;;;5033707;28;20180;-40